Atlas, Pennsylvania
Current Conditions -  °F | °C
As of 6:53 AM on Monday 22 Dec 2014 (Local Time) from KSEG Reporting Station
Haze Haze  
Wind Chill: 17°   Ceiling: Unl
Heat Index: 17°   Visibility: 5mi
Dew Point: 14°   Wind: 0mph
Humidity: 88%   Direction: NA
Pressure: 30.32"   Gusts: NA
Location:  40.7952°N, 76.4365°W
Report Text: KSEG 221153Z AUTO 00000KT 5SM BR CLR M08/M10 A3032 RMK AO2 SLP273 I1000 I6000 T10831100 11067 21083 53000
Loading
Personal Weather Stations






























Interactive Weather Map New forecast layout! Learn more

10-Day Weather Forecast

Advertisements
Track Severe Weather on mobile